sensor_id;sensor_type;location;lat;lon;timestamp;pressure;altitude;pressure_sealevel;temperature;humidity
56038;BME280;41907;47.848;9.000;2023-02-28T00:00:26;96059.59;;;-2.41;99.93
56038;BME280;41907;47.848;9.000;2023-02-28T00:02:52;96069.81;;;-2.39;99.96
56038;BME280;41907;47.848;9.000;2023-02-28T00:05:20;96066.63;;;-2.41;99.58
56038;BME280;41907;47.848;9.000;2023-02-28T00:07:47;96077.50;;;-2.44;100.00
56038;BME280;41907;47.848;9.000;2023-02-28T00:10:16;96070.69;;;-2.45;100.00
56038;BME280;41907;47.848;9.000;2023-02-28T00:12:45;96070.03;;;-2.41;100.00
56038;BME280;41907;47.848;9.000;2023-02-28T00:15:11;96068.59;;;-2.37;100.00
56038;BME280;41907;47.848;9.000;2023-02-28T00:17:37;96072.44;;;-2.39;99.70
56038;BME280;41907;47.848;9.000;2023-02-28T00:20:04;96067.63;;;-2.42;100.00
56038;BME280;41907;47.848;9.000;2023-02-28T00:22:31;96070.16;;;-2.36;99.62
56038;BME280;41907;47.848;9.000;2023-02-28T00:24:56;96064.38;;;-2.38;99.65
56038;BME280;41907;47.848;9.000;2023-02-28T00:27:22;96053.94;;;-2.38;99.10
56038;BME280;41907;47.848;9.000;2023-02-28T00:29:47;96058.94;;;-2.36;99.31
56038;BME280;41907;47.848;9.000;2023-02-28T00:32:12;96063.94;;;-2.35;98.75
56038;BME280;41907;47.848;9.000;2023-02-28T00:34:38;96055.28;;;-2.35;97.93
56038;BME280;41907;47.848;9.000;2023-02-28T00:37:08;96050.53;;;-2.38;98.86
56038;BME280;41907;47.848;9.000;2023-02-28T00:39:35;96055.16;;;-2.40;98.73
56038;BME280;41907;47.848;9.000;2023-02-28T00:42:01;96055.53;;;-2.37;98.74
56038;BME280;41907;47.848;9.000;2023-02-28T00:44:28;96059.38;;;-2.39;97.40
56038;BME280;41907;47.848;9.000;2023-02-28T00:46:53;96063.88;;;-2.46;98.03
56038;BME280;41907;47.848;9.000;2023-02-28T00:49:19;96056.41;;;-2.43;98.15
56038;BME280;41907;47.848;9.000;2023-02-28T00:51:45;96055.81;;;-2.45;97.67
56038;BME280;41907;47.848;9.000;2023-02-28T00:54:11;96051.84;;;-2.47;97.66
56038;BME280;41907;47.848;9.000;2023-02-28T00:56:36;96051.69;;;-2.52;97.65
56038;BME280;41907;47.848;9.000;2023-02-28T00:59:01;96059.28;;;-2.51;98.30
56038;BME280;41907;47.848;9.000;2023-02-28T01:01:27;96052.84;;;-2.48;98.29
56038;BME280;41907;47.848;9.000;2023-02-28T01:03:52;96056.25;;;-2.48;98.34
56038;BME280;41907;47.848;9.000;2023-02-28T01:06:17;96050.81;;;-2.46;98.34
56038;BME280;41907;47.848;9.000;2023-02-28T01:08:43;96045.59;;;-2.46;97.71
56038;BME280;41907;47.848;9.000;2023-02-28T01:11:13;96050.03;;;-2.47;97.81
56038;BME280;41907;47.848;9.000;2023-02-28T01:13:40;96043.03;;;-2.53;98.11
56038;BME280;41907;47.848;9.000;2023-02-28T01:16:06;96046.44;;;-2.52;98.64
56038;BME280;41907;47.848;9.000;2023-02-28T01:18:32;96043.22;;;-2.48;98.14
56038;BME280;41907;47.848;9.000;2023-02-28T01:20:57;96044.63;;;-2.52;98.55
56038;BME280;41907;47.848;9.000;2023-02-28T01:23:23;96045.88;;;-2.54;97.86
56038;BME280;41907;47.848;9.000;2023-02-28T01:25:49;96047.72;;;-2.55;98.99
56038;BME280;41907;47.848;9.000;2023-02-28T01:28:15;96043.50;;;-2.56;98.51
56038;BME280;41907;47.848;9.000;2023-02-28T01:30:40;96041.91;;;-2.57;99.23
56038;BME280;41907;47.848;9.000;2023-02-28T01:33:06;96049.28;;;-2.54;99.38
56038;BME280;41907;47.848;9.000;2023-02-28T01:35:35;96041.09;;;-2.57;99.04
56038;BME280;41907;47.848;9.000;2023-02-28T01:38:01;96040.44;;;-2.53;99.59
56038;BME280;41907;47.848;9.000;2023-02-28T01:40:27;96043.72;;;-2.57;99.25
56038;BME280;41907;47.848;9.000;2023-02-28T01:42:52;96040.88;;;-2.56;98.96
56038;BME280;41907;47.848;9.000;2023-02-28T01:45:29;96047.34;;;-2.58;99.29
56038;BME280;41907;47.848;9.000;2023-02-28T01:48:04;96051.88;;;-2.54;99.62
56038;BME280;41907;47.848;9.000;2023-02-28T01:50:37;96038.91;;;-2.60;99.63
56038;BME280;41907;47.848;9.000;2023-02-28T01:53:07;96049.94;;;-2.58;99.30
56038;BME280;41907;47.848;9.000;2023-02-28T01:55:36;96042.09;;;-2.58;99.44
56038;BME280;41907;47.848;9.000;2023-02-28T01:58:04;96050.03;;;-2.65;99.42
56038;BME280;41907;47.848;9.000;2023-02-28T02:00:31;96049.56;;;-2.62;99.08
56038;BME280;41907;47.848;9.000;2023-02-28T02:02:59;96048.13;;;-2.58;99.46
56038;BME280;41907;47.848;9.000;2023-02-28T02:05:28;96041.09;;;-2.57;99.06
56038;BME280;41907;47.848;9.000;2023-02-28T02:07:58;96040.72;;;-2.61;99.34
56038;BME280;41907;47.848;9.000;2023-02-28T02:33:28;96023.16;;;-2.72;99.39
56038;BME280;41907;47.848;9.000;2023-02-28T02:36:12;96030.34;;;-2.68;99.73
56038;BME280;41907;47.848;9.000;2023-02-28T02:39:06;96021.72;;;-2.68;99.79
56038;BME280;41907;47.848;9.000;2023-02-28T02:41:43;96020.94;;;-2.69;99.68
56038;BME280;41907;47.848;9.000;2023-02-28T02:44:24;96028.56;;;-2.67;99.93
56038;BME280;41907;47.848;9.000;2023-02-28T02:46:55;96035.78;;;-2.69;99.49
56038;BME280;41907;47.848;9.000;2023-02-28T02:49:31;96029.56;;;-2.68;99.64
56038;BME280;41907;47.848;9.000;2023-02-28T02:52:02;96017.16;;;-2.73;99.26
56038;BME280;41907;47.848;9.000;2023-02-28T02:54:33;96031.16;;;-2.67;99.41
56038;BME280;41907;47.848;9.000;2023-02-28T02:57:02;96034.34;;;-2.65;99.69
56038;BME280;41907;47.848;9.000;2023-02-28T02:59:30;96028.75;;;-2.69;100.00
56038;BME280;41907;47.848;9.000;2023-02-28T03:01:59;96023.63;;;-2.75;99.80
56038;BME280;41907;47.848;9.000;2023-02-28T03:04:28;96030.44;;;-2.74;100.00
56038;BME280;41907;47.848;9.000;2023-02-28T03:06:56;96021.56;;;-2.73;100.00
56038;BME280;41907;47.848;9.000;2023-02-28T03:09:22;96020.56;;;-2.72;100.00
56038;BME280;41907;47.848;9.000;2023-02-28T03:11:49;96023.41;;;-2.74;100.00
56038;BME280;41907;47.848;9.000;2023-02-28T03:25:18;96024.34;;;-2.68;100.00
56038;BME280;41907;47.848;9.000;2023-02-28T03:30:51;96015.34;;;-2.72;99.96
56038;BME280;41907;47.848;9.000;2023-02-28T03:33:22;96009.31;;;-2.73;99.50
56038;BME280;41907;47.848;9.000;2023-02-28T03:35:53;96011.28;;;-2.68;99.54
56038;BME280;41907;47.848;9.000;2023-02-28T03:38:30;96004.88;;;-2.72;98.76
56038;BME280;41907;47.848;9.000;2023-02-28T03:41:04;96006.94;;;-2.74;99.14
56038;BME280;41907;47.848;9.000;2023-02-28T03:43:35;96015.72;;;-2.69;99.09
56038;BME280;41907;47.848;9.000;2023-02-28T03:46:05;96008.75;;;-2.75;99.29
56038;BME280;41907;47.848;9.000;2023-02-28T03:49:11;96005.34;;;-2.75;99.28
56038;BME280;41907;47.848;9.000;2023-02-28T03:51:39;96013.09;;;-2.69;99.26
56038;BME280;41907;47.848;9.000;2023-02-28T03:54:10;96018.53;;;-2.70;99.14
56038;BME280;41907;47.848;9.000;2023-02-28T03:56:41;96022.94;;;-2.71;99.51
56038;BME280;41907;47.848;9.000;2023-02-28T03:59:26;96013.91;;;-2.68;99.45
56038;BME280;41907;47.848;9.000;2023-02-28T04:01:53;96012.72;;;-2.72;99.53
56038;BME280;41907;47.848;9.000;2023-02-28T04:04:20;96017.16;;;-2.73;98.69
56038;BME280;41907;47.848;9.000;2023-02-28T04:06:49;96021.13;;;-2.70;98.98
56038;BME280;41907;47.848;9.000;2023-02-28T04:09:15;96014.19;;;-2.76;98.76
56038;BME280;41907;47.848;9.000;2023-02-28T04:11:51;96022.81;;;-2.76;98.44
56038;BME280;41907;47.848;9.000;2023-02-28T04:14:17;96035.06;;;-2.76;98.22
56038;BME280;41907;47.848;9.000;2023-02-28T04:16:43;96034.06;;;-2.75;97.98
56038;BME280;41907;47.848;9.000;2023-02-28T04:19:10;96030.66;;;-2.76;97.98
56038;BME280;41907;47.848;9.000;2023-02-28T04:21:38;96027.03;;;-2.75;97.87
56038;BME280;41907;47.848;9.000;2023-02-28T04:24:09;96034.63;;;-2.73;97.76
56038;BME280;41907;47.848;9.000;2023-02-28T04:26:39;96038.28;;;-2.74;98.20
56038;BME280;41907;47.848;9.000;2023-02-28T04:29:05;96031.78;;;-2.72;97.83
56038;BME280;41907;47.848;9.000;2023-02-28T04:31:31;96024.97;;;-2.73;97.72
56038;BME280;41907;47.848;9.000;2023-02-28T04:33:57;96033.47;;;-2.77;97.27
56038;BME280;41907;47.848;9.000;2023-02-28T04:36:22;96029.06;;;-2.77;97.60
56038;BME280;41907;47.848;9.000;2023-02-28T04:38:48;96021.22;;;-2.77;97.68
56038;BME280;41907;47.848;9.000;2023-02-28T04:41:14;96027.44;;;-2.78;97.68
56038;BME280;41907;47.848;9.000;2023-02-28T04:43:39;96022.81;;;-2.76;97.72
56038;BME280;41907;47.848;9.000;2023-02-28T04:46:05;96018.03;;;-2.79;97.21
56038;BME280;41907;47.848;9.000;2023-02-28T04:48:33;96019.75;;;-2.73;97.34
56038;BME280;41907;47.848;9.000;2023-02-28T04:51:03;96023.81;;;-2.77;97.47
56038;BME280;41907;47.848;9.000;2023-02-28T04:53:29;96026.00;;;-2.74;97.00
56038;BME280;41907;47.848;9.000;2023-02-28T04:55:56;96020.22;;;-2.76;97.18
56038;BME280;41907;47.848;9.000;2023-02-28T04:58:21;96031.06;;;-2.79;97.47
56038;BME280;41907;47.848;9.000;2023-02-28T05:00:51;96021.81;;;-2.75;97.63
56038;BME280;41907;47.848;9.000;2023-02-28T05:03:16;96034.63;;;-2.73;97.31
56038;BME280;41907;47.848;9.000;2023-02-28T05:05:42;96043.50;;;-2.74;97.07
56038;BME280;41907;47.848;9.000;2023-02-28T05:08:07;96038.81;;;-2.72;96.81
56038;BME280;41907;47.848;9.000;2023-02-28T05:10:33;96035.06;;;-2.76;97.44
56038;BME280;41907;47.848;9.000;2023-02-28T05:12:59;96039.06;;;-2.74;97.17
56038;BME280;41907;47.848;9.000;2023-02-28T05:15:24;96045.44;;;-2.70;97.44
56038;BME280;41907;47.848;9.000;2023-02-28T05:17:50;96045.44;;;-2.70;96.94
56038;BME280;41907;47.848;9.000;2023-02-28T05:20:15;96052.69;;;-2.72;96.57
56038;BME280;41907;47.848;9.000;2023-02-28T05:22:41;96056.88;;;-2.71;97.08
56038;BME280;41907;47.848;9.000;2023-02-28T05:25:10;96060.31;;;-2.70;97.42
56038;BME280;41907;47.848;9.000;2023-02-28T05:27:37;96067.91;;;-2.69;97.53
56038;BME280;41907;47.848;9.000;2023-02-28T05:30:02;96048.03;;;-2.70;97.25
56038;BME280;41907;47.848;9.000;2023-02-28T05:32:29;96063.72;;;-2.70;96.62
56038;BME280;41907;47.848;9.000;2023-02-28T05:34:54;96052.25;;;-2.69;97.11
56038;BME280;41907;47.848;9.000;2023-02-28T05:37:20;96054.72;;;-2.74;97.27
56038;BME280;41907;47.848;9.000;2023-02-28T05:39:46;96059.94;;;-2.74;97.46
56038;BME280;41907;47.848;9.000;2023-02-28T05:42:11;96060.00;;;-2.62;97.21
56038;BME280;41907;47.848;9.000;2023-02-28T05:44:36;96060.81;;;-2.62;96.92
56038;BME280;41907;47.848;9.000;2023-02-28T05:47:02;96064.88;;;-2.66;96.92
56038;BME280;41907;47.848;9.000;2023-02-28T05:49:27;96052.25;;;-2.69;96.75
56038;BME280;41907;47.848;9.000;2023-02-28T05:51:52;96066.69;;;-2.66;96.58
56038;BME280;41907;47.848;9.000;2023-02-28T05:54:18;96069.09;;;-2.65;96.65
56038;BME280;41907;47.848;9.000;2023-02-28T05:56:43;96064.88;;;-2.66;96.69
56038;BME280;41907;47.848;9.000;2023-02-28T05:59:14;96073.53;;;-2.65;96.30
56038;BME280;41907;47.848;9.000;2023-02-28T06:01:44;96081.34;;;-2.65;96.90
56038;BME280;41907;47.848;9.000;2023-02-28T06:04:14;96083.72;;;-2.64;96.83
56038;BME280;41907;47.848;9.000;2023-02-28T06:06:51;96085.97;;;-2.67;96.37
56038;BME280;41907;47.848;9.000;2023-02-28T06:09:18;96085.31;;;-2.63;96.42
56038;BME280;41907;47.848;9.000;2023-02-28T06:11:44;96081.91;;;-2.63;96.93
56038;BME280;41907;47.848;9.000;2023-02-28T06:14:15;96081.28;;;-2.58;96.29
56038;BME280;41907;47.848;9.000;2023-02-28T06:16:41;96085.03;;;-2.54;96.58
56038;BME280;41907;47.848;9.000;2023-02-28T06:19:06;96093.53;;;-2.59;96.07
56038;BME280;41907;47.848;9.000;2023-02-28T06:21:32;96095.72;;;-2.56;95.72
56038;BME280;41907;47.848;9.000;2023-02-28T06:23:57;96096.06;;;-2.52;95.68
56038;BME280;41907;47.848;9.000;2023-02-28T06:26:23;96101.88;;;-2.50;94.38
56038;BME280;41907;47.848;9.000;2023-02-28T06:28:48;96103.41;;;-2.43;94.46
56038;BME280;41907;47.848;9.000;2023-02-28T06:31:16;96106.09;;;-2.49;95.42
56038;BME280;41907;47.848;9.000;2023-02-28T06:33:43;96104.91;;;-2.53;94.52
56038;BME280;41907;47.848;9.000;2023-02-28T06:36:11;96096.44;;;-2.49;93.75
56038;BME280;41907;47.848;9.000;2023-02-28T06:38:38;96106.69;;;-2.47;93.55
56038;BME280;41907;47.848;9.000;2023-02-28T06:41:04;96104.88;;;-2.47;93.15
56038;BME280;41907;47.848;9.000;2023-02-28T06:43:33;96108.84;;;-2.44;93.07
56038;BME280;41907;47.848;9.000;2023-02-28T06:46:01;96108.91;;;-2.51;92.50
56038;BME280;41907;47.848;9.000;2023-02-28T06:48:27;96119.28;;;-2.44;92.43
56038;BME280;41907;47.848;9.000;2023-02-28T06:51:02;96117.56;;;-2.50;93.63
56038;BME280;41907;47.848;9.000;2023-02-28T06:53:27;96125.97;;;-2.48;93.97
56038;BME280;41907;47.848;9.000;2023-02-28T06:55:53;96138.81;;;-2.47;93.43
56038;BME280;41907;47.848;9.000;2023-02-28T06:58:18;96132.03;;;-2.54;93.29
56038;BME280;41907;47.848;9.000;2023-02-28T07:00:45;96135.25;;;-2.52;92.97
56038;BME280;41907;47.848;9.000;2023-02-28T07:03:12;96137.63;;;-2.51;92.83
56038;BME280;41907;47.848;9.000;2023-02-28T07:05:39;96133.81;;;-2.48;92.87
56038;BME280;41907;47.848;9.000;2023-02-28T07:08:05;96138.50;;;-2.57;93.27
56038;BME280;41907;47.848;9.000;2023-02-28T07:10:33;96142.47;;;-2.54;92.97
56038;BME280;41907;47.848;9.000;2023-02-28T07:13:00;96141.25;;;-2.52;93.41
56038;BME280;41907;47.848;9.000;2023-02-28T07:15:25;96140.19;;;-2.44;93.05
56038;BME280;41907;47.848;9.000;2023-02-28T07:17:51;96147.59;;;-2.41;92.51
56038;BME280;41907;47.848;9.000;2023-02-28T07:20:16;96148.19;;;-2.39;92.81
56038;BME280;41907;47.848;9.000;2023-02-28T07:22:42;96158.75;;;-2.34;91.75
56038;BME280;41907;47.848;9.000;2023-02-28T07:25:08;96159.44;;;-2.39;92.59
56038;BME280;41907;47.848;9.000;2023-02-28T07:27:34;96165.38;;;-2.32;92.53
56038;BME280;41907;47.848;9.000;2023-02-28T07:29:59;96165.44;;;-2.38;92.42
56038;BME280;41907;47.848;9.000;2023-02-28T07:32:27;96162.38;;;-2.35;92.96
56038;BME280;41907;47.848;9.000;2023-02-28T07:34:52;96161.44;;;-2.41;92.69
56038;BME280;41907;47.848;9.000;2023-02-28T07:37:18;96165.16;;;-2.48;93.32
56038;BME280;41907;47.848;9.000;2023-02-28T07:39:43;96165.06;;;-2.42;93.23
56038;BME280;41907;47.848;9.000;2023-02-28T07:42:09;96163.66;;;-2.38;92.81
56038;BME280;41907;47.848;9.000;2023-02-28T07:44:37;96161.97;;;-2.32;92.50
56038;BME280;41907;47.848;9.000;2023-02-28T07:47:08;96161.75;;;-2.31;92.94
56038;BME280;41907;47.848;9.000;2023-02-28T07:49:35;96167.69;;;-2.42;93.39
56038;BME280;41907;47.848;9.000;2023-02-28T07:52:02;96168.91;;;-2.44;93.22
56038;BME280;41907;47.848;9.000;2023-02-28T07:54:28;96164.19;;;-2.36;92.97
56038;BME280;41907;47.848;9.000;2023-02-28T07:56:54;96172.78;;;-2.29;92.97
56038;BME280;41907;47.848;9.000;2023-02-28T07:59:19;96168.50;;;-2.23;91.69
56038;BME280;41907;47.848;9.000;2023-02-28T08:01:44;96158.47;;;-2.26;92.56
56038;BME280;41907;47.848;9.000;2023-02-28T08:04:10;96165.69;;;-2.03;92.88
56038;BME280;41907;47.848;9.000;2023-02-28T08:06:35;96167.72;;;-2.05;92.05
56038;BME280;41907;47.848;9.000;2023-02-28T08:09:00;96172.09;;;-1.99;91.62
56038;BME280;41907;47.848;9.000;2023-02-28T08:11:26;96175.06;;;-1.96;91.04
56038;BME280;41907;47.848;9.000;2023-02-28T08:13:51;96171.28;;;-2.00;91.72
56038;BME280;41907;47.848;9.000;2023-02-28T08:16:17;96176.88;;;-1.96;91.86
56038;BME280;41907;47.848;9.000;2023-02-28T08:18:47;96168.38;;;-2.10;91.98
56038;BME280;41907;47.848;9.000;2023-02-28T08:21:12;96175.06;;;-2.14;92.10
56038;BME280;41907;47.848;9.000;2023-02-28T08:23:38;96179.84;;;-2.11;91.77
56038;BME280;41907;47.848;9.000;2023-02-28T08:26:04;96182.53;;;-2.17;92.38
56038;BME280;41907;47.848;9.000;2023-02-28T08:28:30;96180.28;;;-2.14;92.59
56038;BME280;41907;47.848;9.000;2023-02-28T08:30:55;96177.44;;;-2.12;92.02
56038;BME280;41907;47.848;9.000;2023-02-28T08:33:21;96178.69;;;-2.15;92.66
56038;BME280;41907;47.848;9.000;2023-02-28T08:35:47;96177.53;;;-2.19;92.54
56038;BME280;41907;47.848;9.000;2023-02-28T08:38:13;96185.72;;;-2.15;92.71
56038;BME280;41907;47.848;9.000;2023-02-28T08:40:38;96177.59;;;-2.07;92.84
56038;BME280;41907;47.848;9.000;2023-02-28T08:43:04;96186.22;;;-1.89;91.70
56038;BME280;41907;47.848;9.000;2023-02-28T08:45:29;96206.78;;;-1.74;90.25
56038;BME280;41907;47.848;9.000;2023-02-28T08:47:55;96198.16;;;-1.93;90.74
56038;BME280;41907;47.848;9.000;2023-02-28T08:50:21;96196.91;;;-2.08;91.24
56038;BME280;41907;47.848;9.000;2023-02-28T08:52:46;96204.31;;;-2.05;90.79
56038;BME280;41907;47.848;9.000;2023-02-28T08:55:12;96205.91;;;-2.04;91.34
56038;BME280;41907;47.848;9.000;2023-02-28T08:57:37;96198.56;;;-2.14;90.86
56038;BME280;41907;47.848;9.000;2023-02-28T09:00:03;96200.53;;;-2.09;91.60
56038;BME280;41907;47.848;9.000;2023-02-28T09:02:30;96210.13;;;-2.03;91.26
56038;BME280;41907;47.848;9.000;2023-02-28T09:04:56;96193.44;;;-2.02;91.14
56038;BME280;41907;47.848;9.000;2023-02-28T09:07:22;96203.47;;;-1.99;91.63
56038;BME280;41907;47.848;9.000;2023-02-28T09:09:47;96197.06;;;-2.03;90.84
56038;BME280;41907;47.848;9.000;2023-02-28T09:12:22;96203.47;;;-1.99;91.03
56038;BME280;41907;47.848;9.000;2023-02-28T09:14:48;96211.84;;;-1.97;90.82
56038;BME280;41907;47.848;9.000;2023-02-28T09:17:13;96213.41;;;-1.90;90.85
56038;BME280;41907;47.848;9.000;2023-02-28T09:19:39;96216.03;;;-1.90;91.01
56038;BME280;41907;47.848;9.000;2023-02-28T09:22:04;96213.84;;;-1.93;91.50
56038;BME280;41907;47.848;9.000;2023-02-28T09:24:29;96215.44;;;-1.92;90.71
56038;BME280;41907;47.848;9.000;2023-02-28T09:26:56;96228.28;;;-1.90;91.54
56038;BME280;41907;47.848;9.000;2023-02-28T09:29:22;96213.97;;;-1.88;90.73
56038;BME280;41907;47.848;9.000;2023-02-28T09:31:47;96213.03;;;-1.75;90.66
56038;BME280;41907;47.848;9.000;2023-02-28T09:34:12;96210.94;;;-1.84;90.50
56038;BME280;41907;47.848;9.000;2023-02-28T09:36:38;96215.16;;;-1.83;90.88
56038;BME280;41907;47.848;9.000;2023-02-28T09:39:03;96210.72;;;-1.83;90.90
56038;BME280;41907;47.848;9.000;2023-02-28T09:41:36;96207.44;;;-1.78;91.20
56038;BME280;41907;47.848;9.000;2023-02-28T09:44:05;96208.03;;;-1.76;91.42
56038;BME280;41907;47.848;9.000;2023-02-28T09:46:34;96216.84;;;-1.71;90.50
56038;BME280;41907;47.848;9.000;2023-02-28T09:49:20;96216.38;;;-1.68;90.42
56038;BME280;41907;47.848;9.000;2023-02-28T09:51:51;96216.38;;;-1.68;90.00
56038;BME280;41907;47.848;9.000;2023-02-28T09:54:22;96218.19;;;-1.68;90.34
56038;BME280;41907;47.848;9.000;2023-02-28T09:56:56;96221.09;;;-1.76;91.46
56038;BME280;41907;47.848;9.000;2023-02-28T10:05:14;96226.09;;;-1.57;90.14
56038;BME280;41907;47.848;9.000;2023-02-28T10:13:00;96228.09;;;-1.52;90.07
56038;BME280;41907;47.848;9.000;2023-02-28T10:15:30;96230.97;;;-1.42;89.92
56038;BME280;41907;47.848;9.000;2023-02-28T10:18:00;96226.59;;;-1.30;89.70
56038;BME280;41907;47.848;9.000;2023-02-28T10:20:27;96223.75;;;-1.28;90.13
56038;BME280;41907;47.848;9.000;2023-02-28T10:23:03;96233.09;;;-1.21;89.03
56038;BME280;41907;47.848;9.000;2023-02-28T10:25:35;96239.19;;;-1.08;88.41
56038;BME280;41907;47.848;9.000;2023-02-28T10:28:11;96242.72;;;-1.15;88.50
56038;BME280;41907;47.848;9.000;2023-02-28T10:30:40;96248.97;;;-1.16;88.89
56038;BME280;41907;47.848;9.000;2023-02-28T10:33:17;96245.75;;;-1.18;88.80
56038;BME280;41907;47.848;9.000;2023-02-28T10:35:44;96247.38;;;-1.17;88.68
56038;BME280;41907;47.848;9.000;2023-02-28T10:38:16;96246.69;;;-1.12;88.67
56038;BME280;41907;47.848;9.000;2023-02-28T10:40:42;96253.47;;;-1.23;88.99
56038;BME280;41907;47.848;9.000;2023-02-28T10:45:51;96253.22;;;-1.03;88.42
56038;BME280;41907;47.848;9.000;2023-02-28T10:50:51;96253.47;;;-0.93;87.17
56038;BME280;41907;47.848;9.000;2023-02-28T10:55:58;96248.66;;;-0.78;87.54
56038;BME280;41907;47.848;9.000;2023-02-28T11:01:15;96248.97;;;-0.86;88.55
56038;BME280;41907;47.848;9.000;2023-02-28T11:03:40;96256.34;;;-0.83;87.18
56038;BME280;41907;47.848;9.000;2023-02-28T11:06:11;96248.13;;;-0.98;88.12
56038;BME280;41907;47.848;9.000;2023-02-28T11:08:47;96249.84;;;-0.92;88.22
56038;BME280;41907;47.848;9.000;2023-02-28T11:11:14;96253.78;;;-0.71;87.26
56038;BME280;41907;47.848;9.000;2023-02-28T11:13:43;96246.50;;;-0.69;86.84
56038;BME280;41907;47.848;9.000;2023-02-28T11:16:11;96255.34;;;-0.82;87.70
56038;BME280;41907;47.848;9.000;2023-02-28T11:18:43;96252.59;;;-0.57;86.48
56038;BME280;41907;47.848;9.000;2023-02-28T11:21:27;96251.78;;;-0.57;86.02
56038;BME280;41907;47.848;9.000;2023-02-28T11:24:02;96257.13;;;-0.52;86.43
56038;BME280;41907;47.848;9.000;2023-02-28T11:26:37;96261.25;;;-0.45;84.89
56038;BME280;41907;47.848;9.000;2023-02-28T11:29:11;96259.06;;;-0.59;86.59
56038;BME280;41907;47.848;9.000;2023-02-28T11:31:37;96257.59;;;-0.44;85.36
56038;BME280;41907;47.848;9.000;2023-02-28T11:34:23;96251.00;;;-0.34;85.10
56038;BME280;41907;47.848;9.000;2023-02-28T11:36:50;96250.69;;;-0.26;85.10
56038;BME280;41907;47.848;9.000;2023-02-28T11:39:17;96252.41;;;-0.32;84.03
56038;BME280;41907;47.848;9.000;2023-02-28T11:55:35;96235.88;;;0.14;83.29
56038;BME280;41907;47.848;9.000;2023-02-28T12:22:28;96239.41;;;-0.15;84.43
56038;BME280;41907;47.848;9.000;2023-02-28T12:27:46;96227.78;;;-0.08;85.57
56038;BME280;41907;47.848;9.000;2023-02-28T12:30:33;96242.59;;;-0.13;84.63
56038;BME280;41907;47.848;9.000;2023-02-28T12:33:09;96234.19;;;-0.04;84.65
56038;BME280;41907;47.848;9.000;2023-02-28T12:35:58;96245.91;;;-0.06;83.73
56038;BME280;41907;47.848;9.000;2023-02-28T12:38:25;96231.75;;;-0.17;83.64
56038;BME280;41907;47.848;9.000;2023-02-28T12:43:28;96242.72;;;0.04;83.68
56038;BME280;41907;47.848;9.000;2023-02-28T12:45:59;96238.19;;;-0.01;82.77
56038;BME280;41907;47.848;9.000;2023-02-28T12:48:33;96231.34;;;-0.02;83.78
56038;BME280;41907;47.848;9.000;2023-02-28T12:51:03;96228.94;;;0.08;82.53
56038;BME280;41907;47.848;9.000;2023-02-28T12:53:51;96234.84;;;0.15;81.91
56038;BME280;41907;47.848;9.000;2023-02-28T12:56:32;96226.84;;;0.10;82.02
56038;BME280;41907;47.848;9.000;2023-02-28T12:59:05;96219.78;;;0.11;81.50
56038;BME280;41907;47.848;9.000;2023-02-28T13:01:55;96220.72;;;0.16;82.53
56038;BME280;41907;47.848;9.000;2023-02-28T13:09:38;96219.56;;;0.24;83.16
56038;BME280;41907;47.848;9.000;2023-02-28T13:12:23;96223.34;;;0.16;83.26
56038;BME280;41907;47.848;9.000;2023-02-28T13:14:50;96220.59;;;0.23;83.49
56038;BME280;41907;47.848;9.000;2023-02-28T13:17:20;96224.34;;;0.27;82.64
56038;BME280;41907;47.848;9.000;2023-02-28T13:22:37;96229.72;;;0.09;83.03
56038;BME280;41907;47.848;9.000;2023-02-28T13:28:12;96233.94;;;0.10;82.13
56038;BME280;41907;47.848;9.000;2023-02-28T13:33:34;96234.06;;;0.15;81.98
56038;BME280;41907;47.848;9.000;2023-02-28T13:38:41;96226.13;;;0.38;82.69
56038;BME280;41907;47.848;9.000;2023-02-28T14:07:58;96228.06;;;0.94;78.12
56038;BME280;41907;47.848;9.000;2023-02-28T14:10:31;96216.16;;;1.03;79.28
56038;BME280;41907;47.848;9.000;2023-02-28T14:18:37;96233.84;;;0.96;78.27
56038;BME280;41907;47.848;9.000;2023-02-28T14:21:11;96235.56;;;0.74;78.05
56038;BME280;41907;47.848;9.000;2023-02-28T14:24:07;96232.22;;;0.79;77.96
56038;BME280;41907;47.848;9.000;2023-02-28T14:32:25;96233.38;;;1.28;77.38
56038;BME280;41907;47.848;9.000;2023-02-28T14:37:42;96227.53;;;1.88;74.41
56038;BME280;41907;47.848;9.000;2023-02-28T14:40:15;96222.13;;;1.77;74.34
56038;BME280;41907;47.848;9.000;2023-02-28T14:42:48;96224.59;;;1.67;75.01
56038;BME280;41907;47.848;9.000;2023-02-28T14:45:20;96228.41;;;1.76;74.50
56038;BME280;41907;47.848;9.000;2023-02-28T14:47:45;96222.66;;;1.79;74.83
56038;BME280;41907;47.848;9.000;2023-02-28T14:50:22;96224.25;;;1.80;74.94
56038;BME280;41907;47.848;9.000;2023-02-28T14:52:53;96226.81;;;1.75;75.60
56038;BME280;41907;47.848;9.000;2023-02-28T14:55:24;96223.28;;;1.53;76.21
56038;BME280;41907;47.848;9.000;2023-02-28T14:58:02;96223.84;;;1.38;76.72
56038;BME280;41907;47.848;9.000;2023-02-28T15:00:33;96229.97;;;1.44;76.86
56038;BME280;41907;47.848;9.000;2023-02-28T15:03:01;96224.69;;;1.27;76.99
56038;BME280;41907;47.848;9.000;2023-02-28T15:05:37;96221.38;;;1.32;77.62
56038;BME280;41907;47.848;9.000;2023-02-28T15:10:37;96228.09;;;1.11;78.42
56038;BME280;41907;47.848;9.000;2023-02-28T15:13:07;96231.16;;;1.20;78.16
56038;BME280;41907;47.848;9.000;2023-02-28T15:15:47;96234.16;;;1.11;79.25
56038;BME280;41907;47.848;9.000;2023-02-28T15:20:47;96236.63;;;1.18;79.23
56038;BME280;41907;47.848;9.000;2023-02-28T15:23:14;96235.94;;;1.23;79.41
56038;BME280;41907;47.848;9.000;2023-02-28T15:25:41;96232.34;;;1.29;78.87
56038;BME280;41907;47.848;9.000;2023-02-28T15:28:13;96233.00;;;1.53;78.46
56038;BME280;41907;47.848;9.000;2023-02-28T15:30:39;96237.09;;;1.60;77.77
56038;BME280;41907;47.848;9.000;2023-02-28T15:33:21;96233.72;;;1.48;77.79
56038;BME280;41907;47.848;9.000;2023-02-28T15:35:47;96231.16;;;1.36;78.63
56038;BME280;41907;47.848;9.000;2023-02-28T15:38:26;96232.66;;;1.32;78.91
56038;BME280;41907;47.848;9.000;2023-02-28T15:40:57;96232.19;;;1.19;79.36
56038;BME280;41907;47.848;9.000;2023-02-28T15:43:28;96234.69;;;1.13;80.46
56038;BME280;41907;47.848;9.000;2023-02-28T15:48:31;96236.84;;;1.17;80.63
56038;BME280;41907;47.848;9.000;2023-02-28T15:51:07;96240.00;;;1.30;79.42
56038;BME280;41907;47.848;9.000;2023-02-28T15:56:05;96236.13;;;1.49;80.47
56038;BME280;41907;47.848;9.000;2023-02-28T15:58:32;96234.22;;;1.62;79.70
56038;BME280;41907;47.848;9.000;2023-02-28T16:01:04;96237.16;;;1.65;80.29